createdAt,value
2024-01-20T00:00:17.969Z,84.10
2024-01-20T00:02:47.592Z,84.10
2024-01-20T00:05:14.602Z,84.20
2024-01-20T00:07:44.114Z,84.30
2024-01-20T00:10:13.234Z,84.20
2024-01-20T00:12:41.710Z,84.30
2024-01-20T00:15:10.164Z,84.20
2024-01-20T00:17:38.888Z,84.30
2024-01-20T00:20:06.681Z,84.20
2024-01-20T00:22:33.728Z,84.30
2024-01-20T00:25:05.821Z,84.20
2024-01-20T00:27:32.821Z,84.30
2024-01-20T00:30:01.394Z,84.30
2024-01-20T00:32:29.259Z,84.40
2024-01-20T00:35:05.536Z,84.30
2024-01-20T00:37:39.291Z,84.60
2024-01-20T00:40:07.709Z,84.60
2024-01-20T00:42:34.699Z,84.60
2024-01-20T00:45:01.585Z,84.60
2024-01-20T00:47:31.646Z,84.70
2024-01-20T00:49:59.798Z,84.70
2024-01-20T00:52:26.814Z,84.60
2024-01-20T00:54:53.649Z,84.70
2024-01-20T00:57:20.427Z,84.70
2024-01-20T00:59:47.282Z,84.70
2024-01-20T01:02:16.760Z,84.70
2024-01-20T01:04:44.201Z,84.70
2024-01-20T01:07:11.248Z,84.70
2024-01-20T01:09:41.166Z,84.70
2024-01-20T01:12:08.093Z,85.60
2024-01-20T01:14:35.016Z,84.70
2024-01-20T01:17:01.812Z,84.70
2024-01-20T01:19:28.616Z,84.70
2024-01-20T01:21:55.343Z,84.70
2024-01-20T01:24:22.251Z,84.70
2024-01-20T01:26:49.191Z,84.80
2024-01-20T01:29:15.972Z,84.80
2024-01-20T01:31:44.963Z,84.90
2024-01-20T01:34:14.708Z,84.80
2024-01-20T01:36:41.508Z,84.80
2024-01-20T01:39:08.213Z,84.90
2024-01-20T01:41:35.293Z,84.90
2024-01-20T01:44:02.895Z,84.80
2024-01-20T01:46:31.333Z,85.70
2024-01-20T01:48:58.513Z,85.70
2024-01-20T01:51:25.348Z,84.90
2024-01-20T01:53:52.253Z,84.80
2024-01-20T01:56:21.027Z,85.00
2024-01-20T01:58:48.212Z,84.90
2024-01-20T02:01:15.153Z,85.00
2024-01-20T02:03:42.243Z,84.90
2024-01-20T02:06:09.936Z,84.90
2024-01-20T02:08:37.140Z,85.00
2024-01-20T02:11:04.058Z,84.90
2024-01-20T02:13:31.654Z,85.00
2024-01-20T02:15:58.517Z,85.10
2024-01-20T02:18:25.509Z,85.10
2024-01-20T02:20:52.424Z,85.10
2024-01-20T02:23:19.183Z,85.10
2024-01-20T02:25:47.293Z,85.10
2024-01-20T02:28:15.082Z,85.20
2024-01-20T02:30:42.722Z,85.20
2024-01-20T02:33:10.037Z,85.20
2024-01-20T02:35:36.834Z,85.10
2024-01-20T02:38:03.729Z,85.10
2024-01-20T02:40:30.427Z,85.20
2024-01-20T02:42:57.831Z,85.20
2024-01-20T02:45:27.569Z,85.20
2024-01-20T02:47:55.701Z,85.20
2024-01-20T02:50:22.840Z,85.20
2024-01-20T02:52:49.611Z,85.20
2024-01-20T02:55:16.338Z,85.20
2024-01-20T02:57:43.156Z,85.20
2024-01-20T03:00:10.614Z,85.30
2024-01-20T03:02:37.317Z,85.40
2024-01-20T03:05:04.366Z,85.30
2024-01-20T03:07:31.221Z,85.40
2024-01-20T03:09:57.958Z,85.30
2024-01-20T03:12:24.930Z,85.30
2024-01-20T03:14:51.822Z,85.30
2024-01-20T03:17:18.563Z,85.40
2024-01-20T03:19:45.446Z,86.10
2024-01-20T03:22:12.319Z,85.30
2024-01-20T03:24:39.230Z,85.30
2024-01-20T03:27:05.978Z,85.30
2024-01-20T03:29:32.789Z,85.30
2024-01-20T03:31:59.559Z,85.40
2024-01-20T03:34:26.403Z,85.40
2024-01-20T03:36:53.349Z,85.40
2024-01-20T03:39:20.131Z,85.50
2024-01-20T03:41:46.840Z,85.50
2024-01-20T03:44:13.712Z,85.50
2024-01-20T03:46:42.338Z,85.60
2024-01-20T03:49:09.263Z,85.60
2024-01-20T03:51:35.996Z,85.50
2024-01-20T03:54:05.345Z,85.60
2024-01-20T03:56:32.344Z,85.50
2024-01-20T03:58:59.958Z,85.50
2024-01-20T04:01:26.625Z,85.60
2024-01-20T04:03:53.548Z,85.50
2024-01-20T04:06:20.321Z,85.50
2024-01-20T04:08:47.078Z,85.50
2024-01-20T04:11:13.807Z,85.60
2024-01-20T04:13:40.538Z,85.60
2024-01-20T04:16:07.255Z,85.60
2024-01-20T04:18:34.338Z,85.90
2024-01-20T04:21:02.767Z,85.80
2024-01-20T04:23:29.547Z,85.90
2024-01-20T04:25:56.390Z,85.80
2024-01-20T04:28:23.157Z,85.70
2024-01-20T04:30:51.177Z,85.80
2024-01-20T04:33:18.118Z,85.80
2024-01-20T04:35:44.883Z,85.80
2024-01-20T04:38:11.852Z,85.80
2024-01-20T04:40:41.636Z,85.90
2024-01-20T04:43:10.577Z,85.80
2024-01-20T04:45:40.428Z,85.80
2024-01-20T04:48:10.249Z,85.80
2024-01-20T04:50:36.992Z,85.80
2024-01-20T04:53:03.837Z,85.80
2024-01-20T04:55:30.574Z,85.80
2024-01-20T04:58:00.494Z,85.80
2024-01-20T05:00:27.358Z,85.90
2024-01-20T05:02:54.113Z,85.90
2024-01-20T05:05:20.781Z,85.90
2024-01-20T05:07:47.447Z,85.90
2024-01-20T05:10:14.626Z,85.90
2024-01-20T05:12:44.112Z,85.90
2024-01-20T05:15:13.026Z,85.90
2024-01-20T05:17:40.326Z,85.90
2024-01-20T05:20:07.688Z,86.00
2024-01-20T05:22:34.449Z,86.00
2024-01-20T05:25:03.720Z,86.00
2024-01-20T05:27:30.700Z,86.00
2024-01-20T05:29:57.437Z,86.10
2024-01-20T05:32:24.252Z,86.00
2024-01-20T05:34:53.768Z,86.10
2024-01-20T05:37:20.488Z,86.20
2024-01-20T05:39:47.174Z,86.20
2024-01-20T05:42:13.997Z,86.20
2024-01-20T05:44:41.083Z,86.20
2024-01-20T05:47:07.817Z,86.20
2024-01-20T05:49:34.657Z,86.20
2024-01-20T05:52:01.441Z,86.90
2024-01-20T05:54:30.428Z,86.20
2024-01-20T05:57:00.028Z,86.30
2024-01-20T05:59:26.687Z,86.30
2024-01-20T06:01:53.542Z,86.30
2024-01-20T06:04:20.973Z,86.10
2024-01-20T06:06:47.888Z,86.20
2024-01-20T06:09:17.606Z,86.20
2024-01-20T06:11:44.488Z,86.30
2024-01-20T06:14:11.219Z,86.30
2024-01-20T06:16:40.245Z,86.30
2024-01-20T06:19:07.504Z,86.30
2024-01-20T06:21:34.330Z,86.30
2024-01-20T06:24:01.104Z,86.30
2024-01-20T06:26:27.833Z,86.30
2024-01-20T06:28:54.558Z,86.20
2024-01-20T06:31:27.749Z,86.30
2024-01-20T06:33:55.748Z,86.30
2024-01-20T06:36:23.222Z,86.30
2024-01-20T06:38:50.002Z,86.40
2024-01-20T06:41:17.025Z,86.40
2024-01-20T06:43:44.158Z,86.50
2024-01-20T06:46:10.950Z,86.60
2024-01-20T06:48:37.799Z,86.50
2024-01-20T06:51:05.134Z,86.50
2024-01-20T06:53:32.898Z,86.60
2024-01-20T06:56:01.832Z,86.50
2024-01-20T06:58:28.525Z,86.60
2024-01-20T07:00:55.303Z,86.50
2024-01-20T07:03:22.977Z,86.50
2024-01-20T07:05:50.052Z,86.50
2024-01-20T07:08:16.824Z,86.50
2024-01-20T07:10:43.750Z,86.50
2024-01-20T07:13:10.502Z,86.60
2024-01-20T07:15:37.210Z,86.80
2024-01-20T07:18:05.589Z,86.80
2024-01-20T07:20:32.351Z,86.80
2024-01-20T07:22:59.433Z,86.80
2024-01-20T07:25:26.250Z,86.80
2024-01-20T07:27:52.918Z,86.80
2024-01-20T07:30:19.826Z,86.80
2024-01-20T07:32:46.525Z,86.90
2024-01-20T07:35:13.355Z,86.80
2024-01-20T07:37:40.470Z,86.80
2024-01-20T07:40:07.825Z,86.80
2024-01-20T07:42:35.708Z,86.90
2024-01-20T07:45:03.866Z,86.80
2024-01-20T07:47:30.736Z,86.90
2024-01-20T07:49:57.453Z,86.90
2024-01-20T07:52:24.296Z,86.80
2024-01-20T07:54:51.022Z,86.80
2024-01-20T07:57:17.810Z,86.90
2024-01-20T07:59:47.402Z,86.90
2024-01-20T08:02:15.582Z,87.00
2024-01-20T08:04:42.345Z,86.90
2024-01-20T08:07:10.350Z,87.00
2024-01-20T08:09:37.318Z,87.00
2024-01-20T08:12:04.882Z,87.00
2024-01-20T08:14:31.764Z,87.20
2024-01-20T08:16:58.563Z,87.20
2024-01-20T08:19:25.350Z,87.20
2024-01-20T08:21:52.071Z,87.10
2024-01-20T08:24:18.869Z,87.10
2024-01-20T08:26:46.716Z,87.30
2024-01-20T08:29:13.767Z,87.30
2024-01-20T08:31:40.477Z,87.30
2024-01-20T08:34:07.266Z,87.30
2024-01-20T08:36:34.153Z,87.30
2024-01-20T08:39:03.805Z,87.60
2024-01-20T08:41:30.962Z,87.50
2024-01-20T08:43:57.833Z,87.40
2024-01-20T08:46:26.342Z,87.60
2024-01-20T08:48:53.410Z,87.50
2024-01-20T08:51:20.568Z,87.50
2024-01-20T08:53:47.429Z,87.50
2024-01-20T08:56:14.535Z,87.50
2024-01-20T08:58:41.306Z,87.60
2024-01-20T09:01:08.593Z,87.50
2024-01-20T09:03:35.474Z,87.50
2024-01-20T09:06:02.800Z,87.40
2024-01-20T09:08:29.603Z,87.50
2024-01-20T09:10:57.573Z,87.30
2024-01-20T09:13:24.352Z,87.30
2024-01-20T09:15:51.323Z,87.40
2024-01-20T09:18:19.036Z,87.20
2024-01-20T09:20:47.082Z,87.40
2024-01-20T09:23:14.253Z,87.50
2024-01-20T09:25:40.974Z,87.50
2024-01-20T09:28:07.905Z,87.60
2024-01-20T09:30:36.814Z,87.60
2024-01-20T09:33:05.934Z,87.70
2024-01-20T09:35:32.854Z,87.60
2024-01-20T09:37:59.673Z,87.60
2024-01-20T09:40:26.601Z,87.80
2024-01-20T09:42:53.525Z,87.60
2024-01-20T09:45:20.780Z,87.70
2024-01-20T09:47:47.712Z,87.60
2024-01-20T09:50:14.725Z,87.60
2024-01-20T09:52:53.478Z,87.60
2024-01-20T09:55:22.863Z,87.50
2024-01-20T09:57:51.399Z,87.60
2024-01-20T10:00:21.010Z,87.70
2024-01-20T10:02:48.125Z,87.80
2024-01-20T10:05:18.026Z,87.70
2024-01-20T10:07:47.637Z,87.70
2024-01-20T10:10:21.841Z,87.70
2024-01-20T10:12:52.557Z,87.70
2024-01-20T10:15:30.791Z,87.80
2024-01-20T10:18:00.651Z,87.80
2024-01-20T10:20:34.972Z,87.80
2024-01-20T10:23:03.424Z,87.90
2024-01-20T10:25:30.671Z,87.90
2024-01-20T10:27:57.392Z,87.90
2024-01-20T10:30:27.341Z,87.90
2024-01-20T10:33:04.391Z,87.80
2024-01-20T10:35:39.664Z,87.90
2024-01-20T10:38:12.056Z,87.90
2024-01-20T10:40:42.426Z,87.80
2024-01-20T10:43:15.787Z,87.70
2024-01-20T10:45:54.124Z,87.70
2024-01-20T10:48:27.290Z,87.80
2024-01-20T10:50:58.645Z,87.80
2024-01-20T10:53:27.362Z,87.90
2024-01-20T10:55:54.856Z,87.90
2024-01-20T10:58:26.340Z,88.00
2024-01-20T11:00:53.994Z,88.20
2024-01-20T11:03:21.743Z,88.20
2024-01-20T11:05:49.767Z,88.10
2024-01-20T11:08:25.395Z,88.90
2024-01-20T11:10:54.518Z,88.10
2024-01-20T11:13:26.079Z,88.10
2024-01-20T11:15:53.170Z,88.00
2024-01-20T11:18:21.439Z,88.00
2024-01-20T11:21:03.368Z,88.00
2024-01-20T11:23:30.659Z,87.80
2024-01-20T11:26:09.954Z,88.00
2024-01-20T11:28:36.877Z,88.10
2024-01-20T11:31:06.721Z,88.20
2024-01-20T11:33:33.751Z,88.10
2024-01-20T11:36:04.217Z,88.20
2024-01-20T11:38:35.734Z,87.90
2024-01-20T11:41:03.138Z,87.90
2024-01-20T11:43:30.599Z,88.00
2024-01-20T11:45:58.083Z,87.90
2024-01-20T11:48:26.027Z,88.00
2024-01-20T11:50:53.425Z,88.10
2024-01-20T11:53:21.864Z,87.90
2024-01-20T11:56:00.678Z,87.80
2024-01-20T11:58:28.645Z,87.60
2024-01-20T12:00:56.577Z,87.70
2024-01-20T12:03:24.246Z,87.70
2024-01-20T12:05:52.769Z,87.80
2024-01-20T12:08:20.657Z,87.90
2024-01-20T12:10:47.804Z,87.90
2024-01-20T12:13:17.476Z,87.70
2024-01-20T12:15:47.241Z,87.70
2024-01-20T12:18:14.235Z,87.90
2024-01-20T12:20:41.506Z,88.10
2024-01-20T12:23:08.250Z,88.30
2024-01-20T12:25:37.712Z,88.00
2024-01-20T12:28:04.821Z,87.70
2024-01-20T12:30:31.664Z,87.30
2024-01-20T12:32:58.603Z,87.30
2024-01-20T12:35:26.368Z,87.50
2024-01-20T12:37:53.241Z,87.00
2024-01-20T12:40:20.098Z,86.90
2024-01-20T12:42:47.118Z,87.30
2024-01-20T12:45:14.012Z,87.40
2024-01-20T12:47:43.980Z,87.20
2024-01-20T12:50:11.204Z,87.30
2024-01-20T12:52:37.963Z,87.30
2024-01-20T12:55:05.337Z,87.10
2024-01-20T12:57:32.254Z,87.30
2024-01-20T12:59:58.983Z,86.90
2024-01-20T13:02:26.821Z,87.10
2024-01-20T13:04:53.683Z,87.10
2024-01-20T13:07:23.332Z,86.90
2024-01-20T13:09:50.276Z,87.30
2024-01-20T13:12:17.084Z,87.30
2024-01-20T13:14:46.119Z,86.90
2024-01-20T13:17:12.888Z,86.50
2024-01-20T13:19:39.793Z,86.60
2024-01-20T13:22:06.624Z,86.80
2024-01-20T13:24:33.372Z,86.40
2024-01-20T13:27:03.069Z,86.70
2024-01-20T13:29:32.629Z,86.70
2024-01-20T13:31:59.480Z,86.60
2024-01-20T13:34:26.456Z,86.30
2024-01-20T13:36:53.452Z,86.00
2024-01-20T13:39:20.326Z,86.20
2024-01-20T13:41:47.117Z,86.00
2024-01-20T13:44:13.831Z,86.00
2024-01-20T13:46:40.566Z,85.80
2024-01-20T13:49:13.093Z,85.70
2024-01-20T13:51:40.418Z,85.30
2024-01-20T13:54:07.296Z,85.30
2024-01-20T13:56:34.028Z,85.40
2024-01-20T13:59:00.897Z,85.00
2024-01-20T14:01:27.701Z,84.70
2024-01-20T14:03:57.596Z,85.10
2024-01-20T14:06:25.843Z,86.30
2024-01-20T14:08:53.282Z,85.50
2024-01-20T14:11:20.009Z,85.30
2024-01-20T14:13:47.041Z,84.80
2024-01-20T14:16:13.880Z,83.90
2024-01-20T14:18:40.732Z,83.80
2024-01-20T14:21:07.589Z,83.30
2024-01-20T14:23:34.312Z,83.70
2024-01-20T14:26:01.690Z,83.70
2024-01-20T14:28:28.825Z,83.90
2024-01-20T14:30:55.565Z,84.10
2024-01-20T14:33:22.766Z,83.80
2024-01-20T14:35:49.572Z,83.50
2024-01-20T14:38:16.773Z,82.90
2024-01-20T14:40:43.662Z,82.70
2024-01-20T14:43:10.428Z,82.80
2024-01-20T14:45:37.461Z,82.70
2024-01-20T14:48:07.777Z,82.50
2024-01-20T14:50:34.782Z,82.80
2024-01-20T14:53:02.764Z,83.00
2024-01-20T14:55:31.792Z,83.20
2024-01-20T14:57:59.116Z,83.20
2024-01-20T15:00:26.174Z,83.10
2024-01-20T15:02:53.318Z,83.10
2024-01-20T15:05:20.077Z,82.90
2024-01-20T15:07:46.790Z,83.00
2024-01-20T15:10:13.496Z,83.00
2024-01-20T15:12:40.449Z,82.90
2024-01-20T15:15:07.607Z,83.00
2024-01-20T15:17:35.312Z,82.90
2024-01-20T15:20:02.149Z,82.80
2024-01-20T15:22:28.948Z,82.90
2024-01-20T15:24:55.771Z,83.00
2024-01-20T15:27:22.536Z,83.10
2024-01-20T15:29:49.367Z,83.00
2024-01-20T15:32:17.984Z,82.70
2024-01-20T15:34:44.776Z,82.90
2024-01-20T15:37:11.655Z,82.80
2024-01-20T15:39:38.415Z,82.80
2024-01-20T15:42:05.435Z,82.80
2024-01-20T15:44:32.161Z,82.90
2024-01-20T15:47:01.696Z,82.60
2024-01-20T15:49:28.449Z,82.90
2024-01-20T15:51:55.190Z,82.50
2024-01-20T15:54:22.032Z,82.70
2024-01-20T15:56:48.994Z,82.80
2024-01-20T15:59:15.689Z,83.50
2024-01-20T16:01:42.459Z,82.60
2024-01-20T16:04:09.439Z,82.60
2024-01-20T16:06:36.348Z,82.40
2024-01-20T16:09:05.948Z,82.50
2024-01-20T16:11:32.805Z,82.60
2024-01-20T16:13:59.919Z,82.30
2024-01-20T16:16:29.622Z,82.40
2024-01-20T16:18:56.682Z,82.20
2024-01-20T16:21:25.367Z,82.40
2024-01-20T16:23:53.171Z,82.40
2024-01-20T16:26:22.987Z,82.20
2024-01-20T16:28:50.306Z,82.30
2024-01-20T16:31:17.673Z,81.90
2024-01-20T16:33:48.585Z,82.00
2024-01-20T16:36:17.135Z,82.20
2024-01-20T16:38:46.966Z,82.00
2024-01-20T16:41:16.511Z,82.10
2024-01-20T16:43:44.217Z,79.70
2024-01-20T16:46:16.321Z,80.50
2024-01-20T16:48:43.603Z,80.90
2024-01-20T16:51:15.324Z,81.00
2024-01-20T16:53:49.111Z,80.90
2024-01-20T16:56:15.838Z,81.00
2024-01-20T16:58:42.525Z,81.00
2024-01-20T17:01:09.300Z,81.10
2024-01-20T17:03:36.217Z,81.10
2024-01-20T17:06:03.205Z,80.90
2024-01-20T17:08:32.927Z,81.10
2024-01-20T17:10:59.594Z,81.10
2024-01-20T17:13:29.192Z,81.10
2024-01-20T17:15:55.923Z,81.10
2024-01-20T17:18:23.159Z,81.20
2024-01-20T17:20:50.040Z,81.10
2024-01-20T17:23:16.727Z,81.20
2024-01-20T17:25:43.748Z,81.20
2024-01-20T17:28:18.049Z,81.30
2024-01-20T17:30:47.229Z,81.20
2024-01-20T17:33:14.207Z,81.30
2024-01-20T17:35:41.185Z,81.20
2024-01-20T17:38:07.906Z,81.20
2024-01-20T17:40:34.702Z,81.30
2024-01-20T17:43:01.406Z,81.20
2024-01-20T17:45:28.250Z,81.20
2024-01-20T17:47:55.087Z,81.20
2024-01-20T17:50:25.403Z,81.30
2024-01-20T17:52:54.913Z,81.30
2024-01-20T17:55:21.688Z,81.20
2024-01-20T17:57:51.102Z,81.20
2024-01-20T18:00:20.797Z,81.20
2024-01-20T18:02:48.143Z,81.20
2024-01-20T18:05:17.790Z,81.20
2024-01-20T18:07:50.441Z,81.10
2024-01-20T18:10:19.911Z,80.90
2024-01-20T18:12:46.991Z,81.10
2024-01-20T18:15:14.258Z,81.00
2024-01-20T18:17:41.142Z,81.20
2024-01-20T18:20:10.988Z,81.20
2024-01-20T18:22:37.845Z,81.20
2024-01-20T18:25:04.733Z,81.10
2024-01-20T18:27:31.553Z,81.10
2024-01-20T18:29:58.263Z,81.00
2024-01-20T18:32:25.166Z,81.00
2024-01-20T18:34:52.009Z,81.10
2024-01-20T18:37:18.791Z,81.10
2024-01-20T18:39:45.896Z,81.10
2024-01-20T18:42:12.817Z,81.10
2024-01-20T18:44:40.763Z,81.00
2024-01-20T18:47:10.785Z,80.90
2024-01-20T18:49:37.722Z,80.90
2024-01-20T18:52:05.260Z,80.90
2024-01-20T18:54:32.083Z,80.90
2024-01-20T18:56:58.822Z,80.80
2024-01-20T18:59:25.657Z,80.90
2024-01-20T19:01:52.472Z,80.80
2024-01-20T19:04:19.355Z,80.90
2024-01-20T19:06:46.545Z,80.90
2024-01-20T19:09:16.340Z,80.90
2024-01-20T19:11:43.597Z,80.80
2024-01-20T19:14:10.327Z,80.90
2024-01-20T19:16:37.004Z,80.90
2024-01-20T19:19:08.597Z,80.90
2024-01-20T19:21:37.250Z,80.90
2024-01-20T19:24:04.444Z,81.00
2024-01-20T19:26:31.201Z,81.00
2024-01-20T19:28:57.930Z,80.90
2024-01-20T19:31:24.621Z,80.90
2024-01-20T19:33:54.359Z,80.90
2024-01-20T19:36:21.415Z,80.90
2024-01-20T19:38:48.374Z,80.90
2024-01-20T19:41:16.123Z,80.90
2024-01-20T19:43:42.977Z,81.00
2024-01-20T19:46:09.754Z,81.00
2024-01-20T19:48:36.861Z,81.00
2024-01-20T19:51:04.839Z,80.90
2024-01-20T19:53:32.037Z,80.90
2024-01-20T19:55:58.734Z,80.90
2024-01-20T19:58:26.570Z,80.90
2024-01-20T20:00:53.498Z,80.90
2024-01-20T20:03:20.645Z,80.90
2024-01-20T20:05:47.766Z,80.90
2024-01-20T20:08:15.979Z,80.80
2024-01-20T20:10:48.269Z,80.80
2024-01-20T20:13:15.030Z,80.90
2024-01-20T20:15:41.885Z,80.90
2024-01-20T20:18:08.825Z,80.80
2024-01-20T20:20:36.672Z,80.80
2024-01-20T20:23:04.469Z,80.80
2024-01-20T20:25:31.377Z,80.80
2024-01-20T20:27:58.182Z,80.90
2024-01-20T20:30:27.366Z,80.90
2024-01-20T20:32:56.398Z,80.90
2024-01-20T20:35:23.269Z,80.80
2024-01-20T20:37:50.244Z,80.70
2024-01-20T20:40:17.560Z,80.70
2024-01-20T20:42:44.474Z,80.70
2024-01-20T20:45:12.042Z,80.70
2024-01-20T20:47:39.044Z,80.70
2024-01-20T20:50:06.713Z,81.20
2024-01-20T20:52:33.696Z,80.70
2024-01-20T20:55:00.464Z,80.70
2024-01-20T20:57:27.128Z,80.60
2024-01-20T20:59:54.648Z,80.60
2024-01-20T21:02:22.278Z,80.60
2024-01-20T21:04:50.250Z,80.70
2024-01-20T21:07:19.086Z,81.60
2024-01-20T21:09:46.872Z,80.80
2024-01-20T21:12:13.880Z,80.70
2024-01-20T21:14:40.844Z,80.70
2024-01-20T21:17:10.320Z,80.70
2024-01-20T21:19:37.258Z,80.70
2024-01-20T21:22:04.410Z,81.50
2024-01-20T21:24:32.556Z,80.60
2024-01-20T21:26:59.359Z,80.70
2024-01-20T21:29:26.211Z,80.70
2024-01-20T21:31:52.922Z,80.60
2024-01-20T21:34:19.988Z,80.60
2024-01-20T21:36:46.964Z,80.50
2024-01-20T21:39:16.882Z,80.60
2024-01-20T21:41:43.661Z,80.50
2024-01-20T21:44:10.438Z,80.50
2024-01-20T21:46:37.201Z,80.40
2024-01-20T21:49:05.181Z,80.50
2024-01-20T21:51:32.141Z,80.40
2024-01-20T21:53:58.990Z,80.40
2024-01-20T21:56:25.838Z,80.40
2024-01-20T21:58:52.483Z,80.40
2024-01-20T22:01:19.877Z,80.40
2024-01-20T22:03:49.502Z,80.40
2024-01-20T22:06:16.305Z,80.30
2024-01-20T22:08:43.083Z,80.30
2024-01-20T22:11:10.088Z,80.40
2024-01-20T22:13:37.098Z,80.20
2024-01-20T22:16:03.997Z,80.40
2024-01-20T22:18:30.884Z,80.40
2024-01-20T22:20:58.691Z,80.30
2024-01-20T22:23:25.693Z,80.30
2024-01-20T22:25:52.501Z,80.20
2024-01-20T22:28:21.797Z,80.20
2024-01-20T22:30:48.607Z,80.20
2024-01-20T22:33:15.436Z,80.20
2024-01-20T22:35:42.309Z,80.10
2024-01-20T22:38:09.807Z,80.00
2024-01-20T22:40:36.785Z,80.00
2024-01-20T22:43:03.817Z,79.70
2024-01-20T22:45:30.686Z,79.80
2024-01-20T22:47:57.577Z,79.70
2024-01-20T22:50:24.796Z,79.70
2024-01-20T22:52:51.544Z,79.90
2024-01-20T22:55:18.348Z,79.70
2024-01-20T22:57:45.265Z,79.80
2024-01-20T23:00:14.142Z,79.80
2024-01-20T23:02:44.345Z,79.70
2024-01-20T23:05:13.772Z,79.70
2024-01-20T23:07:40.676Z,79.70
2024-01-20T23:10:09.165Z,79.60
2024-01-20T23:12:36.636Z,79.60
2024-01-20T23:15:07.439Z,79.70
2024-01-20T23:17:34.229Z,79.50
2024-01-20T23:20:04.811Z,79.40
2024-01-20T23:22:32.424Z,79.40
2024-01-20T23:24:59.242Z,79.40
2024-01-20T23:27:26.073Z,79.50
2024-01-20T23:29:56.141Z,79.40
2024-01-20T23:32:23.448Z,79.30
2024-01-20T23:34:51.025Z,79.20
2024-01-20T23:37:19.227Z,79.20
2024-01-20T23:39:46.080Z,79.20
2024-01-20T23:42:14.686Z,80.00
2024-01-20T23:44:41.595Z,79.10
2024-01-20T23:47:08.417Z,79.10
2024-01-20T23:49:35.880Z,79.10
2024-01-20T23:52:08.236Z,79.10
2024-01-20T23:54:35.319Z,79.00
2024-01-20T23:57:02.703Z,79.00
2024-01-20T23:59:29.566Z,78.90
